Time;durP1;ratioP1;P1;durP2;ratioP2;P2;SDS_P1;SDS_P2;PMS_P1;PMS_P2;Temp;Humidity;BMP_temperature;BMP_pressure;BME280_temperature;BME280_humidity;BME280_pressure;Samples;Min_cycle;Max_cycle;Signal;HPM_P1;HPM_P2
2023/07/04 00:01:04;;;;;;;9.40;6.32;;;;;;;-142.57;100.00;115900.28;6278270;22;20007;-83
2023/07/04 00:03:30;;;;;;;15.32;6.28;;;;;;;-142.57;100.00;115900.28;6278650;22;20007;-85
2023/07/04 00:05:56;;;;;;;8.95;6.15;;;;;;;-142.57;100.00;115900.28;6278998;22;20012;-83
2023/07/04 00:08:23;;;;;;;8.90;5.78;;;;;;;-142.57;100.00;115900.28;6279336;22;20059;-83
2023/07/04 00:10:50;;;;;;;13.40;6.38;;;;;;;-142.57;100.00;115900.28;6253015;22;20004;-84
2023/07/04 00:13:17;;;;;;;10.00;5.82;;;;;;;-142.57;100.00;115900.28;6279152;22;20008;-81
2023/07/04 00:15:52;;;;;;;9.52;5.95;;;;;;;-142.57;100.00;115900.28;6278063;22;20022;-80
2023/07/04 00:18:21;;;;;;;9.52;5.88;;;;;;;-142.57;100.00;115900.28;6278550;22;20042;-81
2023/07/04 00:20:54;;;;;;;11.65;6.38;;;;;;;-142.57;100.00;115900.28;6277958;22;20012;-81
2023/07/04 00:23:31;;;;;;;10.75;6.60;;;;;;;-142.57;100.00;115900.28;6277766;22;20429;-81
2023/07/04 00:25:57;;;;;;;11.60;7.70;;;;;;;-142.57;100.00;115900.28;6278017;22;20166;-83
2023/07/04 00:28:24;;;;;;;12.95;6.75;;;;;;;-142.57;100.00;115900.28;6277864;22;20003;-81
2023/07/04 00:30:54;;;;;;;11.52;7.15;;;;;;;-142.57;100.00;115900.28;6277905;22;20012;-84
2023/07/04 00:33:22;;;;;;;12.93;6.82;;;;;;;-142.57;100.00;115900.28;6278051;22;20007;-84
2023/07/04 00:35:48;;;;;;;11.18;7.40;;;;;;;-142.57;100.00;115900.28;6250190;22;20026;-82
2023/07/04 00:38:15;;;;;;;16.38;7.78;;;;;;;-142.57;100.00;115900.28;6250839;22;20438;-84
2023/07/04 00:40:43;;;;;;;13.88;7.63;;;;;;;-142.57;100.00;115900.28;6277642;22;20427;-83
2023/07/04 00:43:12;;;;;;;13.68;7.97;;;;;;;-142.57;100.00;115900.28;6278067;22;20008;-79
2023/07/04 00:45:43;;;;;;;15.18;8.98;;;;;;;-142.57;100.00;115900.28;6278147;22;20039;-85
2023/07/04 00:48:13;;;;;;;15.07;10.48;;;;;;;-142.57;100.00;115900.28;6250465;22;20008;-85
2023/07/04 00:50:46;;;;;;;23.13;12.75;;;;;;;-142.57;100.00;115900.28;6277158;22;20012;-82
2023/07/04 00:53:15;;;;;;;25.33;15.50;;;;;;;-142.57;100.00;115900.28;6278220;22;20019;-82
2023/07/04 00:55:46;;;;;;;23.17;14.38;;;;;;;-142.57;100.00;115900.28;6250249;22;20088;-81
2023/07/04 00:58:11;;;;;;;20.50;14.57;;;;;;;-142.57;100.00;115900.28;6277599;22;20431;-83
2023/07/04 01:00:38;;;;;;;27.85;14.02;;;;;;;-142.57;100.00;115900.28;6250225;22;20012;-81
2023/07/04 01:03:11;;;;;;;24.70;13.20;;;;;;;-142.57;100.00;115900.28;6250317;22;20091;-81
2023/07/04 01:05:46;;;;;;;19.73;12.15;;;;;;;-142.57;100.00;115900.28;6279742;22;20012;-82
2023/07/04 01:08:28;;;;;;;21.42;12.15;;;;;;;-142.57;100.00;115900.28;6277589;22;20014;-82
2023/07/04 01:10:55;;;;;;;19.45;12.65;;;;;;;-142.57;100.00;115900.28;6277776;22;20504;-80
2023/07/04 01:13:34;;;;;;;21.17;11.90;;;;;;;-142.57;100.00;115900.28;6250157;22;20007;-81
2023/07/04 01:16:11;;;;;;;17.17;11.27;;;;;;;-142.57;100.00;115900.28;6250633;22;20011;-84
2023/07/04 01:18:43;;;;;;;24.25;11.88;;;;;;;-142.57;100.00;115900.28;6277600;22;20015;-79
2023/07/04 01:21:14;;;;;;;18.30;10.98;;;;;;;-142.57;100.00;115900.28;6278042;22;20011;-85
2023/07/04 01:24:09;;;;;;;17.10;11.75;;;;;;;-142.57;100.00;115900.28;6277310;22;20004;-77
2023/07/04 01:26:42;;;;;;;17.50;11.27;;;;;;;-142.57;100.00;115900.28;6277748;22;20011;-81
2023/07/04 01:29:10;;;;;;;17.42;11.23;;;;;;;-142.57;100.00;115900.28;6277778;22;20065;-83
2023/07/04 01:31:36;;;;;;;18.05;11.18;;;;;;;-142.57;100.00;115900.28;6250152;22;20086;-82
2023/07/04 01:34:06;;;;;;;16.58;11.63;;;;;;;-142.57;100.00;115900.28;6277439;22;20050;-83
2023/07/04 01:36:34;;;;;;;15.80;11.00;;;;;;;-142.57;100.00;115900.28;6276971;22;20018;-81
2023/07/04 01:39:01;;;;;;;19.73;11.10;;;;;;;-142.57;100.00;115900.28;6249654;22;20039;-80
2023/07/04 01:41:28;;;;;;;19.73;11.18;;;;;;;-142.57;100.00;115900.28;6277823;22;20008;-81
2023/07/04 01:43:59;;;;;;;17.75;10.75;;;;;;;-142.57;100.00;115900.28;6249977;22;20431;-83
2023/07/04 01:46:25;;;;;;;20.37;12.27;;;;;;;-142.57;100.00;115900.28;6249846;22;20062;-84
2023/07/04 01:48:51;;;;;;;21.83;10.50;;;;;;;-142.57;100.00;115900.28;6249845;22;20652;-80
2023/07/04 01:51:25;;;;;;;17.08;11.32;;;;;;;-142.57;100.00;115900.28;6276701;22;20087;-82
2023/07/04 01:53:51;;;;;;;17.63;11.23;;;;;;;-142.57;100.00;115900.28;6249723;22;20035;-80
2023/07/04 01:56:17;;;;;;;16.27;10.90;;;;;;;-142.57;100.00;115900.28;6249913;22;20023;-81
2023/07/04 01:58:42;;;;;;;15.35;10.23;;;;;;;-142.57;100.00;115900.28;6276745;22;20073;-84
2023/07/04 02:01:08;;;;;;;17.00;10.07;;;;;;;-142.57;100.00;115900.28;6249402;22;20011;-85
2023/07/04 02:03:34;;;;;;;16.08;11.00;;;;;;;-142.57;100.00;115900.28;6249057;22;20034;-85
2023/07/04 02:06:00;;;;;;;19.73;10.43;;;;;;;-142.57;100.00;115900.28;6249496;22;20339;-81
2023/07/04 02:08:26;;;;;;;17.35;9.75;;;;;;;-142.57;100.00;115900.28;6276676;22;20003;-82
2023/07/04 02:10:51;;;;;;;15.93;9.95;;;;;;;-142.57;100.00;115900.28;6276752;22;20061;-80
2023/07/04 02:13:17;;;;;;;14.68;9.60;;;;;;;-142.57;100.00;115900.28;6249101;22;20023;-83
2023/07/04 02:15:43;;;;;;;15.68;9.93;;;;;;;-142.57;100.00;115900.28;6249729;22;20011;-84
2023/07/04 02:18:08;;;;;;;14.30;9.80;;;;;;;-142.57;100.00;115900.28;6276732;22;20012;-81
2023/07/04 02:20:35;;;;;;;17.52;10.43;;;;;;;-142.57;100.00;115900.28;6276200;22;20037;-83
2023/07/04 02:23:00;;;;;;;13.00;9.02;;;;;;;-142.57;100.00;115900.28;6276504;22;20014;-83
2023/07/04 02:25:26;;;;;;;13.48;9.23;;;;;;;-142.57;100.00;115900.28;6276744;22;20015;-84
2023/07/04 02:27:51;;;;;;;20.48;8.77;;;;;;;-142.57;100.00;115900.28;6249790;22;20501;-83
2023/07/04 02:30:17;;;;;;;10.82;7.97;;;;;;;-142.57;100.00;115900.28;6276584;22;20008;-81
2023/07/04 02:32:43;;;;;;;12.85;7.93;;;;;;;-142.57;100.00;115900.28;6276040;22;20019;-81
2023/07/04 02:35:08;;;;;;;12.88;8.30;;;;;;;-142.57;100.00;115900.28;6249555;22;20012;-81
2023/07/04 02:37:36;;;;;;;15.35;8.27;;;;;;;-142.57;100.00;115900.28;6249508;22;20022;-80
2023/07/04 02:40:02;;;;;;;16.65;8.38;;;;;;;-142.57;100.00;115900.28;6276716;22;20012;-81
2023/07/04 02:42:27;;;;;;;16.95;7.40;;;;;;;-142.57;100.00;115900.28;6249331;22;20010;-81
2023/07/04 02:44:54;;;;;;;14.88;8.55;;;;;;;-142.57;100.00;115900.28;6249829;22;20145;-83
2023/07/04 02:47:25;;;;;;;10.80;7.70;;;;;;;-142.57;100.00;115900.28;6276351;22;20039;-80
2023/07/04 02:49:53;;;;;;;;;;;;;;;-142.57;100.00;115900.28;6250056;22;20146;-82
2023/07/04 02:52:21;;;;;;;9.90;7.38;;;;;;;-142.57;100.00;115900.28;6249344;22;19935;-79
2023/07/04 02:54:47;;;;;;;14.75;7.45;;;;;;;-142.57;100.00;115900.28;6276575;22;20065;-81
2023/07/04 02:57:16;;;;;;;10.25;7.25;;;;;;;-142.57;100.00;115900.28;6276512;22;20050;-83
2023/07/04 02:59:42;;;;;;;10.85;7.32;;;;;;;-142.57;100.00;115900.28;6249140;22;20099;-79
2023/07/04 03:02:08;;;;;;;13.20;6.93;;;;;;;-142.57;100.00;115900.28;6249178;22;20403;-83
2023/07/04 03:04:36;;;;;;;11.20;6.93;;;;;;;-142.57;100.00;115900.28;6249125;22;20008;-81
2023/07/04 03:07:05;;;;;;;10.50;7.05;;;;;;;-142.57;100.00;115900.28;6249517;22;20004;-80
2023/07/04 03:09:31;;;;;;;12.00;6.88;;;;;;;-142.57;100.00;115900.28;6249124;22;20007;-83
2023/07/04 03:11:57;;;;;;;12.88;5.97;;;;;;;-142.57;100.00;115900.28;6276981;22;20012;-84
2023/07/04 03:14:24;;;;;;;9.77;4.97;;;;;;;-142.57;100.00;115900.28;6250896;22;20333;-86
2023/07/04 03:16:50;;;;;;;12.90;5.63;;;;;;;-142.57;100.00;115900.28;6251342;22;20439;-81
2023/07/04 03:19:16;;;;;;;11.07;5.35;;;;;;;-142.57;100.00;115900.28;6251204;22;20057;-83
2023/07/04 03:21:42;;;;;;;11.68;5.90;;;;;;;-142.57;100.00;115900.28;6252091;22;20070;-76
2023/07/04 03:24:08;;;;;;;10.20;5.03;;;;;;;-142.57;100.00;115900.28;6279668;22;20015;-82
2023/07/04 03:26:35;;;;;;;9.30;5.55;;;;;;;-142.57;100.00;115900.28;6252066;22;20016;-84
2023/07/04 03:29:02;;;;;;;11.25;5.60;;;;;;;-142.57;100.00;115900.28;6252249;22;20061;-79
2023/07/04 03:31:28;;;;;;;7.32;4.97;;;;;;;-142.57;100.00;115900.28;6251813;22;20016;-83
2023/07/04 03:33:54;;;;;;;10.43;5.80;;;;;;;-142.57;100.00;115900.28;6252146;22;20516;-78
2023/07/04 03:36:20;;;;;;;10.18;6.30;;;;;;;-142.57;100.00;115900.28;6282387;22;20007;-83
2023/07/04 03:38:45;;;;;;;13.85;8.02;;;;;;;-142.57;100.00;115900.28;6279700;22;20087;-80
2023/07/04 03:41:11;;;;;;;12.82;7.57;;;;;;;-142.57;100.00;115900.28;6278784;22;20035;-82
2023/07/04 03:43:38;;;;;;;15.73;7.38;;;;;;;-142.57;100.00;115900.28;6250870;22;20086;-81
2023/07/04 03:46:05;;;;;;;14.05;8.02;;;;;;;-142.57;100.00;115900.28;6225395;22;20023;-78
2023/07/04 03:48:30;;;;;;;12.82;7.70;;;;;;;-142.57;100.00;115900.28;6250785;22;20043;-80
2023/07/04 03:50:56;;;;;;;11.07;7.65;;;;;;;-142.57;100.00;115900.28;6277902;22;20158;-81
2023/07/04 03:53:21;;;;;;;14.25;7.75;;;;;;;-142.57;100.00;115900.28;6277906;22;20000;-84
2023/07/04 03:55:51;;;;;;;8.73;6.30;;;;;;;-142.57;100.00;115900.28;6277992;22;20011;-80
2023/07/04 03:58:19;;;;;;;10.65;6.22;;;;;;;-142.57;100.00;115900.28;6277952;22;20003;-83
2023/07/04 04:00:46;;;;;;;10.00;5.30;;;;;;;-142.57;100.00;115900.28;6250295;22;20115;-79
2023/07/04 04:03:12;;;;;;;9.55;4.80;;;;;;;-142.57;100.00;115900.28;6277813;22;20338;-80
2023/07/04 04:05:39;;;;;;;8.25;4.85;;;;;;;-142.57;100.00;115900.28;6277767;22;20035;-80
2023/07/04 04:08:04;;;;;;;12.20;4.82;;;;;;;-142.57;100.00;115900.28;6251077;22;20068;-84
2023/07/04 04:10:30;;;;;;;9.07;5.10;;;;;;;-142.57;100.00;115900.28;6278060;22;20372;-84
2023/07/04 04:12:55;;;;;;;12.15;4.47;;;;;;;-142.57;100.00;115900.28;6277724;22;20121;-82
2023/07/04 04:15:21;;;;;;;6.50;4.35;;;;;;;-142.57;100.00;115900.28;6277967;22;20015;-81
2023/07/04 04:17:47;;;;;;;8.73;4.68;;;;;;;-142.57;100.00;115900.28;6277894;22;20091;-83
2023/07/04 04:20:13;;;;;;;9.77;4.05;;;;;;;-142.57;100.00;115900.28;6278855;22;20052;-83
2023/07/04 04:22:43;;;;;;;8.50;4.13;;;;;;;-142.57;100.00;115900.28;6278360;22;20019;-84
2023/07/04 04:25:09;;;;;;;9.85;3.88;;;;;;;-142.57;100.00;115900.28;6277734;22;20011;-82
2023/07/04 04:27:35;;;;;;;10.90;4.18;;;;;;;-142.57;100.00;115900.28;6250992;22;20018;-81
2023/07/04 04:30:05;;;;;;;13.13;3.80;;;;;;;-142.57;100.00;115900.28;6277776;22;20312;-80
2023/07/04 04:32:31;;;;;;;14.52;5.63;;;;;;;-142.57;100.00;115900.28;6250790;22;20080;-81
2023/07/04 04:34:56;;;;;;;13.77;4.43;;;;;;;-142.57;100.00;115900.28;6250519;22;20454;-82
2023/07/04 04:37:23;;;;;;;9.40;3.63;;;;;;;-142.57;100.00;115900.28;6250337;22;20011;-82
2023/07/04 04:39:49;;;;;;;6.82;4.05;;;;;;;-142.57;100.00;115900.28;6277106;22;20012;-82
2023/07/04 04:42:14;;;;;;;6.07;3.80;;;;;;;-142.57;100.00;115900.28;6249934;22;20057;-82
2023/07/04 04:44:41;;;;;;;7.72;4.05;;;;;;;-142.57;100.00;115900.28;6278230;22;20038;-83
2023/07/04 04:47:07;;;;;;;8.02;3.63;;;;;;;-142.57;100.00;115900.28;6277863;22;20380;-87
2023/07/04 04:49:33;;;;;;;6.53;3.50;;;;;;;-142.57;100.00;115900.28;6277614;22;20043;-82
2023/07/04 04:51:58;;;;;;;5.68;3.50;;;;;;;-142.57;100.00;115900.28;6277531;22;20068;-81
2023/07/04 04:54:25;;;;;;;6.78;4.22;;;;;;;-142.57;100.00;115900.28;6250722;22;20011;-80
2023/07/04 04:56:51;;;;;;;7.60;3.92;;;;;;;-142.57;100.00;115900.28;6277730;22;20035;-78
2023/07/04 04:59:17;;;;;;;8.25;4.20;;;;;;;-142.57;100.00;115900.28;6277505;22;20008;-84
2023/07/04 05:01:42;;;;;;;9.40;4.55;;;;;;;-142.57;100.00;115900.28;6278015;22;20004;-81
2023/07/04 05:04:08;;;;;;;10.88;4.10;;;;;;;-142.57;100.00;115900.28;6277569;22;20003;-77
2023/07/04 05:06:34;;;;;;;7.72;4.07;;;;;;;-142.57;100.00;115900.28;6277048;22;20504;-81
2023/07/04 05:08:59;;;;;;;9.88;4.30;;;;;;;-142.57;100.00;115900.28;6277303;22;20011;-80
2023/07/04 05:11:25;;;;;;;12.73;5.30;;;;;;;-142.57;100.00;115900.28;6277232;22;20012;-83
2023/07/04 05:13:50;;;;;;;8.70;4.78;;;;;;;-142.57;100.00;115900.28;6277238;22;20011;-82
2023/07/04 05:16:19;;;;;;;10.20;4.45;;;;;;;-142.57;100.00;115900.28;6277678;22;19999;-84
2023/07/04 05:18:46;;;;;;;15.18;4.47;;;;;;;-142.57;100.00;115900.28;6276879;22;20019;-78
2023/07/04 05:21:14;;;;;;;13.88;5.07;;;;;;;-142.57;100.00;115900.28;6277220;22;20014;-82
2023/07/04 05:23:44;;;;;;;12.98;4.53;;;;;;;-142.57;100.00;115900.28;6277233;22;20015;-85
2023/07/04 05:26:11;;;;;;;10.10;3.70;;;;;;;-142.57;100.00;115900.28;6277188;22;20069;-83
2023/07/04 05:28:37;;;;;;;7.93;4.25;;;;;;;-142.57;100.00;115900.28;6277303;22;20000;-84
2023/07/04 05:31:08;;;;;;;9.43;4.93;;;;;;;-142.57;100.00;115900.28;6277231;22;20144;-83
2023/07/04 05:33:34;;;;;;;10.10;4.55;;;;;;;-142.57;100.00;115900.28;6277386;22;20338;-82
2023/07/04 05:36:04;;;;;;;7.60;4.65;;;;;;;-142.57;100.00;115900.28;6276526;22;20494;-83
2023/07/04 05:38:29;;;;;;;11.93;4.70;;;;;;;-142.57;100.00;115900.28;6277032;22;20011;-81
2023/07/04 05:40:55;;;;;;;8.93;4.82;;;;;;;-142.57;100.00;115900.28;6276896;22;20010;-82
2023/07/04 05:43:20;;;;;;;8.88;4.40;;;;;;;-142.57;100.00;115900.28;6277660;22;20011;-85
2023/07/04 05:45:53;;;;;;;8.25;4.32;;;;;;;-142.57;100.00;115900.28;6278069;22;20011;-86
2023/07/04 05:48:19;;;;;;;11.60;4.03;;;;;;;-142.57;100.00;115900.28;6279170;22;20012;-88
2023/07/04 05:50:57;;;;;;;10.25;4.18;;;;;;;-142.57;100.00;115900.28;6251541;22;20031;-86
2023/07/04 05:53:25;;;;;;;5.60;3.50;;;;;;;-142.57;100.00;115900.28;6277736;22;20007;-84
2023/07/04 05:55:52;;;;;;;7.90;4.00;;;;;;;-142.57;100.00;115900.28;6277676;22;20003;-82
2023/07/04 05:58:19;;;;;;;7.68;4.07;;;;;;;-142.57;100.00;115900.28;6277208;22;20008;-85
2023/07/04 06:00:47;;;;;;;6.65;3.47;;;;;;;-142.57;100.00;115900.28;6224907;22;20015;-83
2023/07/04 06:03:16;;;;;;;6.00;3.55;;;;;;;-142.57;100.00;115900.28;6277012;22;20003;-85
2023/07/04 06:05:42;;;;;;;9.40;3.90;;;;;;;-142.57;100.00;115900.28;6275093;22;20446;-82
2023/07/04 06:08:08;;;;;;;7.55;5.53;;;;;;;-142.57;100.00;115900.28;6277194;22;20012;-84
2023/07/04 06:10:37;;;;;;;9.52;4.05;;;;;;;-142.57;100.00;115900.28;6251913;22;20019;-82
2023/07/04 06:13:03;;;;;;;7.18;3.58;;;;;;;-142.57;98.68;115900.28;6284451;22;20027;-79
2023/07/04 06:15:29;;;;;;;8.68;3.80;;;;;;;-142.57;93.25;115900.28;6280778;22;20030;-85
2023/07/04 06:17:57;;;;;;;10.20;3.45;;;;;;;-142.57;91.85;115900.28;6279025;22;20027;-86
2023/07/04 06:20:23;;;;;;;5.65;3.03;;;;;;;-142.57;86.82;115900.28;6279851;22;20022;-79
2023/07/04 06:22:49;;;;;;;7.35;2.83;;;;;;;-142.57;82.64;115900.28;6280985;22;20012;-81
2023/07/04 06:25:14;;;;;;;13.43;3.60;;;;;;;-142.57;80.89;115900.28;6281057;22;20008;-89
2023/07/04 06:27:41;;;;;;;4.50;2.60;;;;;;;-142.57;81.67;115900.28;6254990;22;20012;-81
2023/07/04 06:30:11;;;;;;;4.65;2.22;;;;;;;-142.57;72.98;115900.28;6281195;22;20056;-83
2023/07/04 06:32:36;;;;;;;7.60;2.88;;;;;;;-142.57;72.06;115900.28;6258427;22;20436;-84
2023/07/04 06:35:02;;;;;;;7.80;3.08;;;;;;;-142.57;65.76;115900.28;6287286;22;20042;-82
2023/07/04 06:37:28;;;;;;;3.72;2.50;;;;;;;-142.57;66.01;115900.28;6283265;22;20007;-80
2023/07/04 06:39:53;;;;;;;6.05;2.80;;;;;;;-142.57;61.50;115900.28;6282193;22;20019;-83
2023/07/04 06:42:19;;;;;;;10.60;2.40;;;;;;;-142.57;60.96;115900.28;6283413;22;20087;-79
2023/07/04 06:44:52;;;;;;;8.23;2.25;;;;;;;-142.57;66.06;115900.28;6252258;22;20012;-83
2023/07/04 06:47:21;;;;;;;4.28;2.28;;;;;;;-142.57;65.05;115900.28;6283914;22;20040;-83
2023/07/04 06:49:46;;;;;;;7.55;2.78;;;;;;;-142.57;63.37;115900.28;6284306;22;20034;-87
2023/07/04 06:52:12;;;;;;;8.00;2.42;;;;;;;-142.57;62.94;115900.28;6281585;22;20012;-88
2023/07/04 06:54:40;;;;;;;3.85;1.90;;;;;;;-142.57;62.93;115900.28;6281943;22;20004;-82
2023/07/04 06:57:09;;;;;;;6.97;3.08;;;;;;;-142.57;60.15;115900.28;6281961;22;20008;-89
2023/07/04 06:59:34;;;;;;;6.75;2.33;;;;;;;-142.57;62.95;115900.28;6281521;22;20020;-85
2023/07/04 07:02:00;;;;;;;4.50;2.63;;;;;;;-142.57;63.57;115900.28;6283480;22;20014;-89
2023/07/04 07:04:26;;;;;;;6.40;3.30;;;;;;;-142.57;64.36;115900.28;6258360;22;20061;-86
2023/07/04 07:06:51;;;;;;;9.25;2.95;;;;;;;-142.57;62.79;115900.28;6282996;22;20079;-83
2023/07/04 07:09:17;;;;;;;5.10;2.67;;;;;;;-142.57;59.61;115900.28;6282045;22;20018;-86
2023/07/04 07:11:42;;;;;;;6.20;2.90;;;;;;;-142.57;58.69;115900.28;6282473;22;20018;-88
2023/07/04 07:14:08;;;;;;;5.75;3.00;;;;;;;-142.57;57.27;115900.28;6283563;22;20011;-81
2023/07/04 07:16:33;;;;;;;12.63;3.58;;;;;;;-142.57;56.80;115900.28;6284991;22;20020;-90
2023/07/04 07:18:59;;;;;;;6.82;3.65;;;;;;;-142.57;60.00;115900.28;6258704;22;20549;-80
2023/07/04 07:21:28;;;;;;;5.90;3.70;;;;;;;-142.57;59.67;115900.28;6254716;22;20364;-86
2023/07/04 07:23:54;;;;;;;10.38;3.78;;;;;;;-142.57;60.90;115900.28;6255754;22;20034;-93
2023/07/04 07:26:21;;;;;;;9.13;3.65;;;;;;;-142.57;61.24;115900.28;6256968;22;20012;-88
2023/07/04 07:28:47;;;;;;;8.07;2.67;;;;;;;-142.57;57.91;115900.28;6255719;22;20035;-88
2023/07/04 07:31:22;;;;;;;10.50;2.28;;;;;;;-142.57;56.96;115900.28;6281669;22;20011;-87
2023/07/04 07:33:49;;;;;;;8.77;2.60;;;;;;;-142.57;56.86;115900.28;6280981;22;20042;-84
2023/07/04 07:36:38;;;;;;;7.25;2.28;;;;;;;-142.57;54.62;115900.28;6280920;22;20431;-89
2023/07/04 07:39:05;;;;;;;8.02;2.05;;;;;;;-142.57;53.77;115900.28;6253418;22;20039;-85
2023/07/04 07:41:34;;;;;;;5.53;2.45;;;;;;;-142.57;50.98;115900.28;6280391;22;20069;-87
2023/07/04 07:44:00;;;;;;;7.97;2.63;;;;;;;-142.57;49.29;115900.28;6278339;22;20012;-85
2023/07/04 07:46:26;;;;;;;5.85;2.60;;;;;;;-142.57;51.39;115900.28;6280716;22;20045;-87
2023/07/04 07:48:51;;;;;;;3.10;2.58;;;;;;;-142.57;53.51;115900.28;6281563;22;20387;-85
2023/07/04 07:51:19;;;;;;;5.07;2.67;;;;;;;-142.57;51.43;115900.28;6254296;22;20022;-87
2023/07/04 07:53:47;;;;;;;8.68;2.95;;;;;;;-142.57;49.65;115900.28;6253849;22;20008;-82
2023/07/04 07:56:15;;;;;;;4.75;2.60;;;;;;;-142.57;49.91;115900.28;6283216;22;20008;-87
2023/07/04 07:58:41;;;;;;;5.60;2.60;;;;;;;-142.57;48.71;115900.28;6281404;22;20012;-86
2023/07/04 08:01:10;;;;;;;4.38;2.47;;;;;;;-142.57;45.79;115900.28;6284294;22;20006;-87
2023/07/04 08:03:40;;;;;;;12.75;2.90;;;;;;;-142.57;47.89;115900.28;6282891;22;20011;-91
2023/07/04 08:06:06;;;;;;;3.80;3.08;;;;;;;-142.57;49.44;115900.28;6281877;22;20073;-88
2023/07/04 08:08:31;;;;;;;12.98;3.20;;;;;;;-142.57;53.72;115900.28;6283590;22;20011;-87
2023/07/04 08:10:57;;;;;;;7.72;3.25;;;;;;;-142.57;49.91;115900.28;6254587;22;20032;-86
2023/07/04 08:13:26;;;;;;;10.27;3.60;;;;;;;-142.57;49.10;115900.28;6281026;22;20007;-85
2023/07/04 08:15:55;;;;;;;6.53;3.20;;;;;;;-142.57;51.90;115900.28;6280284;22;20012;-85
2023/07/04 08:18:21;;;;;;;8.57;3.40;;;;;;;-142.57;51.57;115900.28;6279523;22;20014;-84
2023/07/04 08:21:01;;;;;;;7.68;3.13;;;;;;;-142.57;53.05;115900.28;6287031;22;20003;-84
2023/07/04 08:23:27;;;;;;;9.73;3.60;;;;;;;-142.57;51.04;115900.28;6291898;22;20008;-81
2023/07/04 08:25:53;;;;;;;5.22;2.95;;;;;;;-142.57;50.91;115900.28;6290998;22;20430;-83
2023/07/04 08:28:21;;;;;;;11.00;3.33;;;;;;;-142.57;50.13;115900.28;6281603;22;20027;-85
2023/07/04 08:30:47;;;;;;;9.05;3.25;;;;;;;-142.57;49.48;115900.28;6280837;22;20004;-86
2023/07/04 08:33:16;;;;;;;9.20;3.55;;;;;;;-142.57;45.83;115900.28;6280184;22;20007;-87
2023/07/04 08:36:07;;;;;;;7.57;3.13;;;;;;;-142.57;47.56;115900.28;6281158;22;20045;-85
2023/07/04 08:38:33;;;;;;;11.98;2.75;;;;;;;-142.57;45.98;115900.28;6278455;22;20016;-84
2023/07/04 08:41:01;;;;;;;5.18;3.20;;;;;;;-142.57;47.22;115900.28;6277767;22;20011;-77
2023/07/04 08:43:34;;;;;;;9.52;3.03;;;;;;;-142.57;47.91;115900.28;6277767;22;20003;-80
2023/07/04 08:46:02;;;;;;;4.57;3.05;;;;;;;-142.57;47.94;115900.28;6278105;22;20016;-84
2023/07/04 08:48:28;;;;;;;8.73;3.83;;;;;;;-142.57;48.18;115900.28;6278626;22;20019;-81
2023/07/04 08:50:58;;;;;;;7.07;2.38;;;;;;;-142.57;47.67;115900.28;6277828;22;20019;-81
2023/07/04 08:53:32;;;;;;;8.15;2.97;;;;;;;-142.57;47.89;115900.28;6257769;22;20052;-90
2023/07/04 08:56:21;;;;;;;12.57;3.50;;;;;;;-142.57;48.77;115900.28;6287615;22;20019;-90
2023/07/04 08:59:25;;;;;;;5.95;2.70;;;;;;;-142.57;49.50;115900.28;6275365;22;20020;-88
2023/07/04 09:02:33;;;;;;;9.02;3.38;;;;;;;-142.57;49.62;115900.28;6302967;22;20019;-88
2023/07/04 09:05:44;;;;;;;7.38;2.75;;;;;;;-142.57;49.33;115900.28;6303419;22;20027;-91
2023/07/04 09:08:32;;;;;;;8.15;2.83;;;;;;;-142.57;46.98;115900.28;6121846;23;20017;-89
2023/07/04 09:11:19;;;;;;;7.85;2.90;;;;;;;-142.57;49.18;115900.28;6112427;23;20448;-79
2023/07/04 09:13:50;;;;;;;5.65;2.65;;;;;;;-142.57;48.94;115900.28;6152503;23;20022;-84
2023/07/04 09:16:26;;;;;;;10.30;3.13;;;;;;;-142.57;48.09;115900.28;6128846;23;20066;-80
2023/07/04 09:18:58;;;;;;;8.52;2.80;;;;;;;-142.57;45.18;115900.28;6167419;22;20007;-80
2023/07/04 09:21:25;;;;;;;14.40;3.38;;;;;;;-142.57;44.07;115900.28;6277528;22;20012;-83
2023/07/04 09:23:58;;;;;;;5.57;2.70;;;;;;;-142.57;43.22;115900.28;6251582;22;20007;-82
2023/07/04 09:26:35;;;;;;;13.80;2.60;;;;;;;-142.57;43.35;115900.28;6250841;22;20014;-80
2023/07/04 09:29:02;;;;;;;8.70;2.88;;;;;;;-142.57;43.62;115900.28;6277230;22;20640;-82
2023/07/04 09:31:30;;;;;;;9.00;3.33;;;;;;;-142.57;44.76;115900.28;6278679;22;20369;-79
2023/07/04 09:34:00;;;;;;;6.65;2.60;;;;;;;-142.57;45.16;115900.28;6252939;22;20014;-80
2023/07/04 09:36:31;;;;;;;8.30;3.03;;;;;;;-142.57;nan;115900.28;6279375;22;20007;-80
2023/07/04 09:39:04;;;;;;;7.65;2.58;;;;;;;-142.57;44.38;115900.28;6227118;22;20015;-79
2023/07/04 09:41:42;;;;;;;4.45;2.60;;;;;;;-142.57;44.33;115900.28;6280385;22;20018;-80
2023/07/04 09:44:17;;;;;;;11.18;2.72;;;;;;;-142.57;44.37;115900.28;6254615;22;20014;-80
2023/07/04 09:46:51;;;;;;;7.07;2.85;;;;;;;-142.57;43.80;115900.28;6280735;22;20007;-82
2023/07/04 09:49:30;;;;;;;12.30;2.88;;;;;;;-142.57;43.23;115900.28;6281297;22;20078;-80
2023/07/04 09:52:16;;;;;;;11.93;2.53;;;;;;;-142.57;44.03;115900.28;6284193;22;20007;-81
2023/07/04 09:54:42;;;;;;;7.07;2.97;;;;;;;-142.57;43.69;115900.28;6256523;22;20023;-81
2023/07/04 09:57:23;;;;;;;8.00;2.53;;;;;;;-142.57;42.52;115900.28;6283027;22;19999;-83
2023/07/04 09:59:50;;;;;;;5.55;3.00;;;;;;;-142.57;43.15;115900.28;6229794;22;20423;-80
2023/07/04 10:02:33;;;;;;;6.38;3.17;;;;;;;-142.57;42.25;115900.28;6260963;22;20047;-81
2023/07/04 10:04:59;;;;;;;6.45;2.72;;;;;;;-142.57;41.41;115900.28;6287425;22;20008;-82
2023/07/04 10:07:26;;;;;;;5.50;2.85;;;;;;;-142.57;40.79;115900.28;6257765;22;20008;-82
2023/07/04 10:09:58;;;;;;;9.10;2.72;;;;;;;-142.57;41.39;115900.28;6286984;22;20018;-81
2023/07/04 10:12:26;;;;;;;7.00;2.80;;;;;;;-142.57;42.47;115900.28;6285307;22;20363;-83
2023/07/04 10:14:55;;;;;;;6.20;2.40;;;;;;;-142.57;42.49;115900.28;6279846;22;20391;-89
2023/07/04 10:17:30;;;;;;;6.72;2.50;;;;;;;-142.57;41.81;115900.28;6279579;22;20011;-85
2023/07/04 10:20:05;;;;;;;9.00;2.78;;;;;;;-142.57;41.57;115900.28;6247870;22;20012;-83
2023/07/04 10:22:33;;;;;;;9.48;2.88;;;;;;;-142.57;42.18;115900.28;6249666;22;20403;-81
2023/07/04 10:25:00;;;;;;;6.18;2.40;;;;;;;-142.57;41.37;115900.28;6284433;22;19999;-81
2023/07/04 10:27:34;;;;;;;6.90;3.00;;;;;;;-142.57;41.12;115900.28;6299413;22;20022;-80
2023/07/04 10:30:06;;;;;;;6.80;2.67;;;;;;;-142.57;42.48;115900.28;6296654;22;20010;-82
2023/07/04 10:32:46;;;;;;;9.70;2.40;;;;;;;-142.57;42.61;115900.28;6303413;22;19999;-82
2023/07/04 10:35:18;;;;;;;6.13;2.63;;;;;;;-142.57;41.65;115900.28;6303503;22;20044;-82
2023/07/04 10:37:49;;;;;;;9.80;2.80;;;;;;;-142.57;42.38;115900.28;6294355;22;20056;-81
2023/07/04 10:40:18;;;;;;;8.68;2.40;;;;;;;-142.57;42.42;115900.28;6282123;22;20012;-82
2023/07/04 10:42:55;;;;;;;5.65;2.80;;;;;;;-142.57;44.09;115900.28;6286226;22;20003;-85
2023/07/04 10:45:26;;;;;;;7.60;2.50;;;;;;;-142.57;42.72;115900.28;6280992;22;20045;-81
2023/07/04 10:47:57;;;;;;;5.78;2.40;;;;;;;-142.57;41.69;115900.28;6280408;22;20011;-86
2023/07/04 10:50:32;;;;;;;10.90;2.83;;;;;;;-142.57;41.03;115900.28;6279375;22;20014;-82
2023/07/04 10:52:58;;;;;;;8.88;2.83;;;;;;;-142.57;41.69;115900.28;6281298;22;20011;-87
2023/07/04 10:55:35;;;;;;;5.50;2.65;;;;;;;-142.57;40.71;115900.28;6281968;22;20042;-82
2023/07/04 10:58:11;;;;;;;7.68;2.60;;;;;;;-142.57;41.12;115900.28;6280390;22;20007;-81
2023/07/04 11:00:50;;;;;;;6.13;2.80;;;;;;;-142.57;41.56;115900.28;6280773;22;20026;-82
2023/07/04 11:03:39;;;;;;;5.03;2.88;;;;;;;-142.57;42.93;115900.28;6280049;22;20048;-84
2023/07/04 11:06:12;;;;;;;10.95;2.70;;;;;;;-142.57;43.33;115900.28;6279264;22;20004;-82
2023/07/04 11:08:39;;;;;;;4.65;2.40;;;;;;;-142.57;43.62;115900.28;6250888;22;20072;-85
2023/07/04 11:11:12;;;;;;;7.63;2.78;;;;;;;-142.57;42.97;115900.28;6279898;22;20019;-85